Time;durP1;ratioP1;P1;durP2;ratioP2;P2;SDS_P1;SDS_P2;PMS_P1;PMS_P2;Temp;Humidity;BMP_temperature;BMP_pressure;BME280_temperature;BME280_humidity;BME280_pressure;Samples;Min_cycle;Max_cycle;Signal;HPM_P1;HPM_P2
2022/09/28 00:00:10;;;;;;;2.30;2.10;;;;;;;7.41;97.54;99532.22;5045873;23;20046;-95
2022/09/28 00:02:36;;;;;;;2.72;2.40;;;;;;;7.40;97.76;99535.66;5035427;28;20030;-96
2022/09/28 00:05:01;;;;;;;2.92;2.50;;;;;;;7.38;97.65;99535.69;5033059;28;20083;-96
2022/09/28 00:07:28;;;;;;;2.50;2.30;;;;;;;7.37;97.53;99535.72;5036838;28;20028;-96
2022/09/28 00:09:53;;;;;;;2.40;1.98;;;;;;;7.38;97.74;99542.59;5035911;28;20048;-95
2022/09/28 00:12:19;;;;;;;3.10;2.40;;;;;;;7.37;98.03;99536.59;5037617;28;20029;-96
2022/09/28 00:14:59;;;;;;;2.58;2.20;;;;;;;7.38;97.51;99538.25;5036107;28;20075;-96
2022/09/28 00:17:25;;;;;;;2.72;2.50;;;;;;;7.37;97.78;99525.41;5036952;28;20087;-96
2022/09/28 00:19:50;;;;;;;2.38;2.10;;;;;;;7.38;97.75;99522.78;5036407;28;20022;-96
2022/09/28 00:22:25;;;;;;;3.10;2.73;;;;;;;7.37;98.11;99521.09;5036611;28;20031;-96
2022/09/28 00:24:50;;;;;;;3.85;2.92;;;;;;;7.39;98.07;99523.63;5035710;28;20478;-95
2022/09/28 00:27:18;;;;;;;3.38;2.78;;;;;;;7.34;98.00;99518.59;5035928;28;20092;-95
2022/09/28 00:29:43;;;;;;;3.47;2.50;;;;;;;7.37;98.28;99517.66;5036679;28;20033;-96
2022/09/28 00:32:15;;;;;;;3.75;2.95;;;;;;;7.37;98.00;99509.91;5035835;28;20052;-95
2022/09/28 00:34:44;;;;;;;2.63;2.30;;;;;;;7.37;97.92;99513.38;5036184;28;20045;-95
2022/09/28 00:37:11;;;;;;;2.35;2.15;;;;;;;7.39;97.81;99510.75;5035620;28;20054;-95
2022/09/28 00:40:13;;;;;;;2.35;2.15;;;;;;;7.40;97.86;99507.28;5035596;28;20501;-96
2022/09/28 00:42:54;;;;;;;1.83;1.73;;;;;;;7.38;97.86;99493.56;5035986;28;20033;-96
2022/09/28 00:45:22;;;;;;;1.75;1.65;;;;;;;7.38;97.83;99506.47;5035554;28;20025;-95
2022/09/28 00:48:05;;;;;;;1.70;1.60;;;;;;;7.36;97.48;99503.94;5035503;28;20513;-96
2022/09/28 00:50:34;;;;;;;1.70;1.60;;;;;;;7.34;97.73;99499.66;5035224;28;20082;-95
2022/09/28 00:53:23;;;;;;;3.22;2.00;;;;;;;7.33;97.76;99503.13;5035389;28;20087;-96
2022/09/28 00:55:55;;;;;;;2.20;2.00;;;;;;;7.31;97.51;99499.75;5035235;28;20022;-96
2022/09/28 00:58:38;;;;;;;3.03;2.15;;;;;;;7.33;97.92;99503.13;5037083;28;20043;-96
2022/09/28 01:01:04;;;;;;;2.67;2.25;;;;;;;7.30;97.70;99503.22;5034573;28;20088;-95
2022/09/28 01:03:29;;;;;;;3.40;2.63;;;;;;;7.29;97.71;99497.19;5035878;28;20061;-95
2022/09/28 01:06:26;;;;;;;2.83;2.53;;;;;;;7.32;97.41;99491.97;5035070;28;20036;-94
2022/09/28 01:08:57;;;;;;;2.20;2.00;;;;;;;7.34;97.65;99490.19;5034944;28;20124;-95
2022/09/28 01:11:23;;;;;;;2.05;1.88;;;;;;;7.33;97.49;99488.50;5035222;28;20026;-95
2022/09/28 01:13:52;;;;;;;2.10;1.90;;;;;;;7.36;97.46;99493.59;5035325;28;20385;-95
2022/09/28 01:16:38;;;;;;;2.15;1.95;;;;;;;7.41;97.46;99503.81;5034965;28;20022;-95
2022/09/28 01:19:20;;;;;;;;;;;;;;;7.41;97.70;99498.66;5042128;23;20057;-94
2022/09/28 01:22:19;;;;;;;1.70;1.60;;;;;;;7.42;97.41;99492.59;5034711;28;19924;-95
2022/09/28 01:24:46;;;;;;;2.03;1.83;;;;;;;7.42;97.29;99496.03;5002635;28;20482;-95
2022/09/28 01:27:18;;;;;;;;;;;;;;;7.44;97.30;99500.31;5035077;28;20021;-95
2022/09/28 01:30:06;;;;;;;2.25;2.05;;;;;;;7.43;97.33;99499.44;5034825;28;19917;-95
2022/09/28 01:32:37;;;;;;;1.90;1.80;;;;;;;7.41;97.26;99502.06;5041930;23;20053;-96
2022/09/28 01:35:08;;;;;;;1.60;1.50;;;;;;;7.39;97.29;99505.56;5034796;28;20112;-95
2022/09/28 01:37:58;;;;;;;2.40;2.05;;;;;;;7.37;97.39;99512.50;5034830;28;20465;-96
2022/09/28 01:40:26;;;;;;;1.90;1.80;;;;;;;7.35;97.33;99506.53;5034147;28;20040;-95
2022/09/28 01:43:03;;;;;;;2.10;2.00;;;;;;;7.32;97.31;99499.72;5034787;28;20120;-96
2022/09/28 01:45:31;;;;;;;;;;;;;;;7.33;97.46;99505.69;5034533;28;20057;-96
2022/09/28 01:48:03;;;;;;;1.88;1.77;;;;;;;7.32;97.38;99504.03;5034562;28;19920;-96
2022/09/28 01:50:34;;;;;;;2.40;2.20;;;;;;;7.33;97.57;99518.59;5034664;28;20037;-96
2022/09/28 01:53:15;;;;;;;2.58;2.20;;;;;;;7.33;97.39;99508.28;5034564;28;20026;-95
2022/09/28 01:55:43;;;;;;;2.10;1.90;;;;;;;7.36;97.42;99515.97;5034707;28;20018;-94
2022/09/28 01:58:24;;;;;;;2.00;1.90;;;;;;;7.36;97.73;99509.09;5034105;28;20026;-96
2022/09/28 02:00:55;;;;;;;1.90;1.80;;;;;;;7.39;97.63;99515.91;5034674;28;20025;-95
2022/09/28 02:03:31;;;;;;;1.60;1.50;;;;;;;7.39;97.74;99511.56;5034560;28;20445;-96
2022/09/28 02:06:17;;;;;;;2.30;2.03;;;;;;;7.39;97.81;99510.75;5034225;28;20048;-95
2022/09/28 02:08:53;;;;;;;2.45;2.25;;;;;;;7.37;98.02;99503.03;5034436;28;20436;-96
2022/09/28 02:11:36;;;;;;;3.10;2.80;;;;;;;7.37;98.15;99502.19;5033879;28;20026;-95
2022/09/28 02:14:10;;;;;;;3.35;2.70;;;;;;;7.36;97.88;99493.59;5033940;28;20021;-95
2022/09/28 02:16:53;;;;;;;4.78;3.30;;;;;;;7.36;98.66;99498.75;5034174;28;20025;-95
2022/09/28 02:19:22;;;;;;;3.28;2.70;;;;;;;7.37;98.10;99499.59;5034465;28;20021;-96
2022/09/28 02:22:22;;;;;;;7.13;4.18;;;;;;;7.35;99.36;99491.03;5034408;28;20022;-93
2022/09/28 02:25:06;;;;;;;6.65;3.95;;;;;;;7.35;99.39;99501.34;5034160;28;20033;-94
2022/09/28 02:27:59;;;;;;;6.00;4.10;;;;;;;7.33;98.92;99501.41;5034010;28;20462;-94
2022/09/28 02:30:25;;;;;;;4.25;3.30;;;;;;;7.32;98.64;99502.28;5034218;28;20029;-95
2022/09/28 02:32:54;;;;;;;3.58;2.97;;;;;;;7.31;98.64;99495.44;5033776;28;20087;-96
2022/09/28 02:38:10;;;;;;;4.70;3.20;;;;;;;7.24;98.85;99505.03;5034089;28;20104;-95
2022/09/28 02:40:49;;;;;;;5.00;3.53;;;;;;;7.23;98.81;99500.75;5033863;28;20442;-95
2022/09/28 02:46:31;;;;;;;4.07;3.15;;;;;;;7.20;98.91;99495.69;5021804;23;20065;-95
2022/09/28 02:49:38;;;;;;;5.00;3.40;;;;;;;7.20;98.94;99498.28;4994206;28;20034;-95
2022/09/28 02:52:32;;;;;;;3.00;2.70;;;;;;;7.21;98.84;99504.25;4918355;29;20120;-95
2022/09/28 02:55:17;;;;;;;3.08;2.78;;;;;;;7.19;98.81;99495.72;4919096;29;20031;-95
2022/09/28 02:58:06;;;;;;;3.25;2.65;;;;;;;7.19;98.68;99501.72;4982953;28;20109;-95
2022/09/28 03:01:08;;;;;;;3.50;2.70;;;;;;;7.18;98.92;99510.34;4998417;28;20042;-95
2022/09/28 03:04:11;;;;;;;2.60;2.40;;;;;;;7.17;98.83;99508.66;4965720;28;20042;-95
2022/09/28 03:06:44;;;;;;;3.22;2.65;;;;;;;7.16;98.88;99513.81;4997146;28;20108;-95
2022/09/28 03:09:34;;;;;;;4.28;2.70;;;;;;;7.14;98.96;99510.47;4998033;28;20030;-96
2022/09/28 03:12:06;;;;;;;2.65;2.30;;;;;;;7.13;98.71;99509.59;4998058;28;20053;-95
2022/09/28 03:14:31;;;;;;;2.50;2.17;;;;;;;7.15;99.33;99505.25;4997757;28;20026;-96
2022/09/28 03:16:59;;;;;;;2.80;2.38;;;;;;;7.13;99.13;99503.59;4998418;28;20022;-96
2022/09/28 03:19:37;;;;;;;2.40;2.20;;;;;;;7.14;98.81;99507.88;4998279;28;20053;-96
2022/09/28 03:22:02;;;;;;;2.60;2.40;;;;;;;7.13;99.26;99507.00;4998807;28;20027;-96
2022/09/28 03:24:40;;;;;;;2.85;2.20;;;;;;;7.10;99.18;99502.78;4999055;28;20014;-96
2022/09/28 03:27:05;;;;;;;2.30;2.10;;;;;;;7.13;99.09;99512.19;4998415;28;20031;-96
2022/09/28 03:29:47;;;;;;;2.20;2.00;;;;;;;7.13;98.86;99506.19;4998062;28;20156;-96
2022/09/28 03:32:12;;;;;;;2.10;1.90;;;;;;;7.14;99.03;99505.31;5001972;28;20030;-96
2022/09/28 03:34:38;;;;;;;1.23;1.23;;;;;;;7.14;99.02;99500.13;4999566;28;20506;-96
2022/09/28 03:37:03;;;;;;;1.70;1.60;;;;;;;7.12;98.98;99500.16;5001033;28;20022;-96
2022/09/28 03:39:41;;;;;;;2.15;1.95;;;;;;;7.13;99.16;99501.03;5007787;28;20459;-96
2022/09/28 03:42:06;;;;;;;2.03;1.80;;;;;;;7.11;99.05;99506.19;5002501;28;20026;-96
2022/09/28 03:44:31;;;;;;;1.50;1.40;;;;;;;7.09;98.91;99513.16;4999480;28;20100;-96
2022/09/28 03:46:57;;;;;;;1.40;1.30;;;;;;;7.10;98.82;99507.06;5003181;28;20034;-96
2022/09/28 03:49:22;;;;;;;1.10;1.10;;;;;;;7.11;98.87;99507.06;4998452;28;20125;-96
2022/09/28 03:52:12;;;;;;;2.20;1.37;;;;;;;7.15;99.11;99512.16;5006796;28;20102;-96
2022/09/28 03:54:37;;;;;;;1.80;1.70;;;;;;;7.10;99.17;99509.66;5003848;28;20050;-96
2022/09/28 03:57:04;;;;;;;3.53;2.05;;;;;;;7.10;99.55;99513.09;5000459;28;20037;-96
2022/09/28 03:59:29;;;;;;;2.28;1.98;;;;;;;7.10;98.91;99520.84;4999635;28;20022;-95
2022/09/28 04:01:55;;;;;;;1.92;1.80;;;;;;;7.11;98.97;99519.09;5000702;28;20053;-96
2022/09/28 04:04:25;;;;;;;1.70;1.60;;;;;;;7.14;99.21;99516.47;4998665;28;20120;-96
2022/09/28 04:06:50;;;;;;;1.60;1.50;;;;;;;7.12;99.03;99515.63;4997049;28;20034;-95
2022/09/28 04:09:15;;;;;;;1.30;1.20;;;;;;;7.15;99.32;99518.16;5000248;28;20022;-93
2022/09/28 04:11:55;;;;;;;1.30;1.20;;;;;;;7.15;98.98;99515.56;5002324;28;20102;-96
2022/09/28 04:14:20;;;;;;;0.98;0.95;;;;;;;7.18;99.05;99522.38;5005196;28;20086;-95
2022/09/28 04:16:46;;;;;;;0.75;0.75;;;;;;;7.16;98.72;99521.56;5065028;23;20054;-96
2022/09/28 04:19:30;;;;;;;0.65;0.65;;;;;;;7.19;99.00;99519.78;5048877;28;20030;-96
2022/09/28 04:21:55;;;;;;;0.98;0.98;;;;;;;7.18;99.05;99514.66;5049850;28;20026;-96
2022/09/28 04:24:21;;;;;;;1.60;1.33;;;;;;;7.16;99.26;99511.25;5055137;28;20013;-96
2022/09/28 04:26:46;;;;;;;1.20;1.10;;;;;;;7.14;98.99;99513.88;5279310;23;20095;-95
2022/09/28 04:31:56;;;;;;;1.00;1.00;;;;;;;7.14;98.99;99503.56;5537369;23;21770;-96
2022/09/28 04:56:11;;;;;;;1.00;1.00;;;;;;;6.96;98.65;99509.97;5333843;23;20272;-96
2022/09/28 04:58:37;;;;;;;0.90;0.90;;;;;;;6.91;98.62;99509.25;4966200;29;20031;-96
2022/09/28 05:01:16;;;;;;;1.17;0.80;;;;;;;6.88;98.74;99523.03;4964418;29;20031;-96
2022/09/28 05:03:42;;;;;;;0.90;0.90;;;;;;;6.86;98.55;99527.41;4960577;29;20290;-96
2022/09/28 05:06:26;;;;;;;0.80;0.80;;;;;;;6.85;98.54;99527.41;4945036;29;20059;-96
2022/09/28 05:08:52;;;;;;;0.80;0.80;;;;;;;6.82;98.79;99527.47;4967900;28;20032;-96
2022/09/28 05:11:20;;;;;;;1.10;1.10;;;;;;;6.76;98.94;99531.88;4963260;29;20523;-96
2022/09/28 05:13:49;;;;;;;0.98;0.98;;;;;;;6.76;98.87;99528.44;4964143;28;20022;-96
2022/09/28 05:16:15;;;;;;;0.80;0.75;;;;;;;6.75;99.04;99524.19;4967462;29;20029;-96
2022/09/28 05:18:40;;;;;;;0.70;0.70;;;;;;;6.76;98.89;99531.00;4963934;29;20047;-96
2022/09/28 05:21:25;;;;;;;0.50;0.50;;;;;;;6.78;98.82;99522.38;4964290;29;20481;-96
2022/09/28 05:24:06;;;;;;;0.60;0.60;;;;;;;6.81;99.06;99526.63;4963072;29;20035;-96
2022/09/28 05:26:32;;;;;;;0.43;0.40;;;;;;;6.80;98.90;99528.38;4964073;29;20019;-96
2022/09/28 05:28:57;;;;;;;0.45;0.45;;;;;;;6.82;98.91;99530.91;4963719;29;20487;-96
2022/09/28 05:31:23;;;;;;;0.70;0.47;;;;;;;6.79;99.27;99533.53;4963503;29;20027;-96
2022/09/28 05:33:48;;;;;;;0.93;0.52;;;;;;;6.76;99.44;99531.88;4966753;29;20046;-96
2022/09/28 05:36:17;;;;;;;0.50;0.50;;;;;;;6.75;99.05;99526.78;4967699;29;20031;-96
2022/09/28 05:38:48;;;;;;;0.40;0.40;;;;;;;6.79;98.96;99528.38;4968233;29;20108;-96
2022/09/28 05:41:13;;;;;;;0.70;0.70;;;;;;;6.78;99.19;99529.25;4964657;29;20086;-96
2022/09/28 05:43:39;;;;;;;0.40;0.40;;;;;;;6.75;99.06;99522.44;4961826;29;20046;-96
2022/09/28 05:46:17;;;;;;;0.30;0.30;;;;;;;6.75;98.75;99530.19;4959215;29;20091;-96
2022/09/28 05:48:42;;;;;;;0.50;0.50;;;;;;;6.73;98.83;99529.34;4959216;29;20054;-95
2022/09/28 05:51:35;;;;;;;0.40;0.40;;;;;;;6.75;98.69;99534.50;4956758;29;20488;-95
2022/09/28 05:54:16;;;;;;;0.30;0.30;;;;;;;6.76;98.79;99533.59;4957967;29;20035;-96
2022/09/28 05:56:41;;;;;;;0.40;0.40;;;;;;;6.76;98.70;99528.44;4960376;29;20133;-95
2022/09/28 05:59:07;;;;;;;0.35;0.35;;;;;;;6.80;98.70;99537.81;4959148;29;20054;-94
2022/09/28 06:01:32;;;;;;;0.40;0.40;;;;;;;6.80;98.73;99540.41;4957011;29;20023;-95
2022/09/28 06:04:13;;;;;;;0.52;0.50;;;;;;;6.82;98.64;99548.97;4958234;29;20030;-94
2022/09/28 06:06:39;;;;;;;0.30;0.30;;;;;;;6.84;99.02;99542.03;4956902;29;20047;-90
2022/09/28 06:09:04;;;;;;;0.50;0.50;;;;;;;6.87;99.18;99547.13;4955835;29;20030;-91
2022/09/28 06:11:31;;;;;;;0.43;0.43;;;;;;;6.88;99.08;99548.81;4955790;29;20105;-91
2022/09/28 06:13:56;;;;;;;0.50;0.50;;;;;;;6.89;99.01;99547.09;4956681;29;20038;-91
2022/09/28 06:16:36;;;;;;;0.40;0.40;;;;;;;6.91;99.01;99553.09;4955791;29;20027;-89
2022/09/28 06:19:01;;;;;;;0.52;0.52;;;;;;;6.89;99.18;99549.69;4955507;29;20035;-90
2022/09/28 06:21:26;;;;;;;0.52;0.50;;;;;;;6.91;98.72;99555.66;4955625;29;20110;-90
2022/09/28 06:23:58;;;;;;;0.60;0.60;;;;;;;6.89;98.77;99555.69;4955494;29;20043;-90
2022/09/28 06:26:24;;;;;;;0.40;0.40;;;;;;;6.87;98.70;99554.03;4955978;28;20015;-90
2022/09/28 06:28:49;;;;;;;0.50;0.50;;;;;;;6.88;98.71;99556.56;4955821;29;20031;-90
2022/09/28 06:31:22;;;;;;;1.23;0.88;;;;;;;6.94;99.41;99555.56;4955376;29;20502;-90
2022/09/28 06:33:48;;;;;;;0.80;0.80;;;;;;;7.02;99.08;99560.56;4956107;29;20030;-91
2022/09/28 06:36:14;;;;;;;1.02;1.02;;;;;;;7.18;99.31;99564.53;4955473;29;20070;-90
2022/09/28 06:38:40;;;;;;;1.33;1.23;;;;;;;7.32;99.26;99564.22;4955598;29;20027;-90
2022/09/28 06:41:11;;;;;;;0.98;0.98;;;;;;;7.34;98.64;99561.59;4955505;29;20110;-90
2022/09/28 06:43:38;;;;;;;0.98;0.98;;;;;;;7.40;98.52;99570.06;4955210;29;20122;-90
2022/09/28 06:46:04;;;;;;;;;;;;;;;7.56;98.59;99569.72;4955519;29;20499;-90
2022/09/28 06:48:30;;;;;;;0.80;0.80;;;;;;;7.62;98.21;99571.31;4955647;29;19914;-91
2022/09/28 06:50:55;;;;;;;1.05;1.05;;;;;;;7.96;98.79;99570.50;4955283;29;20099;-90
2022/09/28 06:53:22;;;;;;;2.10;1.70;;;;;;;9.48;96.45;99577.50;4956297;29;20039;-90
2022/09/28 06:55:47;;;;;;;2.20;1.70;;;;;;;10.58;96.46;99563.53;4969273;23;20063;-89
2022/09/28 06:58:39;;;;;;;1.13;1.10;;;;;;;11.00;94.27;99579.34;4917676;29;20032;-92
2022/09/28 07:01:16;;;;;;;1.20;1.10;;;;;;;10.66;93.03;99578.81;4913040;29;20036;-95
2022/09/28 07:03:42;;;;;;;1.17;1.17;;;;;;;10.19;92.84;99585.56;4918603;29;20028;-94
2022/09/28 07:06:10;;;;;;;1.93;1.67;;;;;;;9.84;93.21;99585.00;4916796;29;20020;-95
2022/09/28 07:08:48;;;;;;;0.95;0.95;;;;;;;9.56;93.36;99595.41;4917559;29;20548;-95
2022/09/28 07:11:14;;;;;;;1.02;1.02;;;;;;;9.31;93.21;99587.53;4900646;29;20053;-96
2022/09/28 07:13:39;;;;;;;1.00;1.00;;;;;;;9.14;93.81;99588.88;4899890;29;20085;-95
2022/09/28 07:16:25;;;;;;;2.25;1.58;;;;;;;9.00;93.93;99596.19;4901085;29;20108;-96
2022/09/28 07:18:50;;;;;;;2.15;1.83;;;;;;;8.81;93.42;99588.97;4906428;29;20525;-94
2022/09/28 07:21:31;;;;;;;2.30;2.10;;;;;;;8.68;93.96;99580.69;4899370;29;20028;-94
2022/09/28 07:23:56;;;;;;;2.75;1.80;;;;;;;8.64;94.18;99597.19;4898468;29;20029;-93
2022/09/28 07:26:22;;;;;;;3.80;2.07;;;;;;;8.56;94.56;99593.94;4898461;29;20484;-93
2022/09/28 07:28:47;;;;;;;4.90;2.60;;;;;;;8.48;94.92;99594.19;4898413;29;20025;-92
2022/09/28 07:31:13;;;;;;;3.17;2.27;;;;;;;8.43;95.16;99601.16;4903034;29;20055;-95
2022/09/28 07:33:50;;;;;;;3.35;2.80;;;;;;;8.43;95.39;99596.00;4903099;29;20025;-95
2022/09/28 07:36:19;;;;;;;2.63;2.42;;;;;;;8.44;95.67;99602.88;4901186;29;20048;-94
2022/09/28 07:38:45;;;;;;;4.68;2.50;;;;;;;8.47;96.03;99602.78;4905478;29;20032;-90
2022/09/28 07:41:31;;;;;;;3.50;2.40;;;;;;;8.52;96.36;99608.69;4901162;29;20088;-92
2022/09/28 07:44:04;;;;;;;2.70;2.50;;;;;;;8.56;96.19;99606.88;4901382;29;20037;-94
2022/09/28 07:46:31;;;;;;;2.70;2.45;;;;;;;8.58;96.26;99615.44;4898779;29;20040;-93
2022/09/28 07:48:57;;;;;;;3.33;2.50;;;;;;;8.62;96.44;99614.50;4902488;29;20021;-88
2022/09/28 07:51:22;;;;;;;5.00;2.80;;;;;;;8.64;95.87;99612.72;4902421;29;20031;-93
2022/09/28 07:54:01;;;;;;;3.17;2.70;;;;;;;8.72;96.37;99610.75;4903752;29;20023;-93
2022/09/28 07:56:26;;;;;;;4.80;3.00;;;;;;;8.77;97.26;99615.81;4900296;29;20057;-95
2022/09/28 07:58:51;;;;;;;3.57;2.57;;;;;;;8.82;96.69;99608.78;4901684;29;20040;-92
2022/09/28 08:01:18;;;;;;;2.63;2.40;;;;;;;8.85;96.98;99611.25;4904348;29;20032;-92
2022/09/28 08:03:44;;;;;;;3.15;2.83;;;;;;;8.90;96.53;99614.56;4919403;29;20056;-90
2022/09/28 08:06:11;;;;;;;3.42;2.55;;;;;;;8.95;96.72;99614.44;4918288;29;20040;-86
2022/09/28 08:08:51;;;;;;;4.30;2.80;;;;;;;9.02;97.31;99621.13;4918907;29;20036;-88
2022/09/28 08:11:17;;;;;;;3.72;2.88;;;;;;;9.08;96.85;99625.28;4919130;29;20050;-87
2022/09/28 08:13:44;;;;;;;3.33;2.70;;;;;;;9.13;97.02;99628.59;4919298;29;20052;-87
2022/09/28 08:16:10;;;;;;;3.58;2.70;;;;;;;9.18;96.90;99631.88;4917863;29;20055;-87
2022/09/28 08:18:36;;;;;;;3.78;2.67;;;;;;;9.21;96.67;99625.78;4917611;29;20028;-86
2022/09/28 08:23:47;;;;;;;4.05;2.80;;;;;;;9.41;96.67;99627.78;4918186;29;20043;-85
2022/09/28 08:26:13;;;;;;;3.17;2.75;;;;;;;9.47;96.67;99631.91;4918233;29;20032;-85
2022/09/28 08:28:38;;;;;;;2.90;2.37;;;;;;;9.52;96.77;99638.66;4918613;29;20032;-85
2022/09/28 08:31:06;;;;;;;5.23;3.57;;;;;;;9.58;95.96;99637.63;4917469;29;20056;-86
2022/09/28 08:33:32;;;;;;;4.43;2.90;;;;;;;9.69;96.32;99637.31;4918695;29;20024;-87
2022/09/28 08:35:59;;;;;;;3.30;2.60;;;;;;;9.83;96.66;99649.81;4918627;29;20039;-87
2022/09/28 08:38:26;;;;;;;2.83;2.50;;;;;;;9.95;96.63;99652.03;4918492;29;20155;-87
2022/09/28 08:41:04;;;;;;;3.35;2.50;;;;;;;10.03;95.92;99652.63;4918322;29;20032;-87
2022/09/28 08:43:33;;;;;;;2.90;2.50;;;;;;;10.17;96.00;99644.44;4918666;29;20075;-87
2022/09/28 08:45:59;;;;;;;3.03;2.42;;;;;;;10.27;95.64;99649.28;4918112;29;20036;-88
2022/09/28 08:48:43;;;;;;;2.65;2.20;;;;;;;10.39;95.45;99648.06;4918175;29;20118;-88
2022/09/28 08:51:18;;;;;;;2.28;2.08;;;;;;;10.45;94.71;99653.88;4917328;29;20028;-86
2022/09/28 08:54:04;;;;;;;2.90;2.25;;;;;;;10.53;94.57;99656.22;4917824;29;20032;-86
2022/09/28 08:56:38;;;;;;;2.72;2.25;;;;;;;10.62;94.00;99661.09;4911534;29;20127;-86
2022/09/28 08:59:11;;;;;;;2.55;2.13;;;;;;;10.73;94.59;99672.84;4917208;29;20048;-85
2022/09/28 09:01:43;;;;;;;3.42;2.60;;;;;;;10.84;92.90;99669.91;4918075;29;20052;-86
2022/09/28 09:04:08;;;;;;;2.78;2.42;;;;;;;10.90;92.33;99669.66;4917952;29;20032;-85
2022/09/28 09:06:58;;;;;;;2.70;2.50;;;;;;;11.02;92.64;99671.00;4917663;29;20032;-86
2022/09/28 09:09:48;;;;;;;2.63;2.30;;;;;;;11.17;93.10;99678.22;4917903;29;20516;-87
2022/09/28 09:12:19;;;;;;;4.60;2.97;;;;;;;11.21;90.47;99676.34;4917231;29;20035;-86
2022/09/28 09:15:10;;;;;;;4.50;3.10;;;;;;;11.27;89.71;99669.16;4918129;29;20039;-87
2022/09/28 09:17:58;;;;;;;4.55;2.80;;;;;;;11.40;90.72;99679.09;4917785;29;20496;-88
2022/09/28 09:20:46;;;;;;;3.05;2.45;;;;;;;11.48;91.16;99671.03;4917436;29;20040;-88
2022/09/28 09:23:23;;;;;;;3.83;2.70;;;;;;;11.62;89.82;99676.56;4918446;29;20163;-88
2022/09/28 09:25:59;;;;;;;2.42;2.22;;;;;;;11.68;91.02;99675.47;4918133;29;20028;-86
2022/09/28 09:28:41;;;;;;;3.85;2.90;;;;;;;11.73;89.71;99674.38;4917194;29;20107;-86
2022/09/28 09:31:28;;;;;;;3.05;2.55;;;;;;;11.77;90.46;99682.91;4917571;29;20039;-85
2022/09/28 09:34:12;;;;;;;5.43;2.80;;;;;;;11.88;87.88;99688.53;4917485;29;20562;-88
2022/09/28 09:37:03;;;;;;;4.07;2.95;;;;;;;11.84;88.68;99689.56;4917719;29;20092;-86
2022/09/28 09:39:43;;;;;;;2.60;2.40;;;;;;;11.80;89.28;99692.34;4918040;29;20035;-89
2022/09/28 09:42:49;;;;;;;2.50;2.30;;;;;;;11.70;88.23;99694.47;4917394;29;20035;-86
2022/09/28 09:45:22;;;;;;;2.30;2.10;;;;;;;11.65;89.20;99697.22;4891474;29;20048;-88
2022/09/28 09:47:53;;;;;;;2.33;2.17;;;;;;;11.68;87.91;99704.91;4916657;29;20039;-87
2022/09/28 09:51:00;;;;;;;3.28;2.28;;;;;;;11.74;87.77;99702.06;4917533;29;20492;-88
2022/09/28 09:53:37;;;;;;;3.20;2.30;;;;;;;11.81;87.69;99699.22;4907258;29;20044;-87
2022/09/28 09:56:13;;;;;;;3.30;2.45;;;;;;;11.80;86.29;99702.72;4916269;29;20021;-90
2022/09/28 09:58:47;;;;;;;2.23;2.10;;;;;;;11.76;87.00;99706.38;4917685;29;20040;-89
2022/09/28 10:01:20;;;;;;;2.92;2.10;;;;;;;11.69;86.50;99697.97;4917433;29;20028;-89
2022/09/28 10:03:47;;;;;;;3.70;2.20;;;;;;;11.79;86.29;99694.09;4918192;29;20036;-89
2022/09/28 10:06:29;;;;;;;1.83;1.73;;;;;;;12.02;88.71;99695.81;4918009;29;20031;-89
2022/09/28 10:09:03;;;;;;;3.00;2.20;;;;;;;12.15;87.11;99697.94;4917396;29;20036;-88
2022/09/28 10:11:42;;;;;;;1.98;1.88;;;;;;;12.17;88.52;99696.94;4917562;29;20024;-89
2022/09/28 10:14:14;;;;;;;1.77;1.63;;;;;;;12.26;88.65;99695.75;4917276;29;20032;-88
2022/09/28 10:16:41;;;;;;;1.50;1.40;;;;;;;12.37;88.69;99697.91;4917763;29;20509;-90
2022/09/28 10:19:24;;;;;;;1.90;1.70;;;;;;;12.45;87.62;99698.44;4913480;29;20118;-89
2022/09/28 10:21:50;;;;;;;1.98;1.80;;;;;;;12.50;85.85;99696.47;4917831;29;20095;-91
2022/09/28 10:24:40;;;;;;;2.13;1.92;;;;;;;12.64;84.75;99703.72;4917744;29;20059;-90
2022/09/28 10:27:11;;;;;;;3.00;2.20;;;;;;;12.82;84.50;99690.81;4917412;29;20540;-90
2022/09/28 10:29:54;;;;;;;2.00;1.80;;;;;;;12.89;85.43;99688.81;4929671;23;20047;-84
2022/09/28 10:32:22;;;;;;;2.03;1.80;;;;;;;12.88;86.21;99692.31;4954770;29;20118;-86
2022/09/28 10:34:58;;;;;;;1.45;1.35;;;;;;;12.85;85.69;99700.25;4955057;29;20031;-88
2022/09/28 10:37:23;;;;;;;1.50;1.40;;;;;;;12.75;85.46;99694.63;4954585;29;20444;-85
2022/09/28 10:40:14;;;;;;;1.80;1.70;;;;;;;12.66;84.60;99698.44;4955076;29;20027;-87
2022/09/28 10:42:39;;;;;;;1.50;1.40;;;;;;;12.52;84.89;99693.84;4954739;29;20054;-87
2022/09/28 10:45:22;;;;;;;2.40;1.60;;;;;;;12.43;85.35;99694.22;4935207;29;20074;-88
2022/09/28 10:47:48;;;;;;;3.17;1.70;;;;;;;12.36;84.78;99693.63;4935806;29;20039;-88
2022/09/28 10:50:26;;;;;;;1.30;1.20;;;;;;;12.42;86.16;99695.13;4935337;29;20044;-88
2022/09/28 10:52:51;;;;;;;2.28;1.85;;;;;;;12.40;84.81;99692.56;4935012;29;20083;-88
2022/09/28 10:55:19;;;;;;;1.57;1.47;;;;;;;12.36;85.55;99699.66;4935163;29;20385;-88
2022/09/28 10:57:47;;;;;;;1.25;1.15;;;;;;;12.35;85.70;99689.31;4936011;29;20052;-87
2022/09/28 11:00:32;;;;;;;1.20;1.10;;;;;;;12.62;85.28;99694.28;4932757;29;20126;-88
2022/09/28 11:02:59;;;;;;;1.98;1.70;;;;;;;12.91;82.90;99689.59;4935497;29;20028;-88
2022/09/28 11:07:54;;;;;;;2.10;1.90;;;;;;;13.33;83.34;99680.78;4933814;29;20052;-88
2022/09/28 11:10:28;;;;;;;2.10;1.90;;;;;;;13.51;83.42;99686.09;4935649;29;20028;-90
2022/09/28 11:12:55;;;;;;;2.03;1.92;;;;;;;13.70;82.12;99686.94;4920315;29;20084;-89
2022/09/28 11:15:26;;;;;;;1.95;1.60;;;;;;;13.78;83.71;99689.19;4934846;29;20131;-86
2022/09/28 11:17:51;;;;;;;1.30;1.30;;;;;;;13.80;83.82;99694.31;4938692;29;20035;-86
2022/09/28 11:20:23;;;;;;;1.53;1.43;;;;;;;13.71;82.03;99690.38;4938843;29;20047;-86
2022/09/28 11:22:50;;;;;;;1.25;1.20;;;;;;;13.57;80.09;99691.84;4938870;29;20090;-86
2022/09/28 11:25:16;;;;;;;1.60;1.50;;;;;;;13.58;81.68;99690.13;4931011;29;20469;-86
2022/09/28 11:27:55;;;;;;;1.37;1.23;;;;;;;13.70;82.56;99686.94;4919246;29;20035;-85
2022/09/28 11:30:22;;;;;;;3.20;1.90;;;;;;;13.66;77.21;99694.97;4919236;29;20024;-84
2022/09/28 11:32:48;;;;;;;1.80;1.70;;;;;;;13.52;79.64;99690.38;4919812;29;20060;-84
2022/09/28 11:35:21;;;;;;;1.80;1.70;;;;;;;13.36;80.15;99690.19;4939467;23;20069;-84
2022/09/28 11:38:13;;;;;;;1.58;1.48;;;;;;;13.22;81.43;99693.44;4938587;29;20036;-85
2022/09/28 11:41:04;;;;;;;0.98;0.98;;;;;;;13.08;81.18;99696.66;4937720;29;20481;-84
2022/09/28 11:43:58;;;;;;;1.30;1.20;;;;;;;12.87;78.76;99701.91;4921097;29;20364;-85
2022/09/28 11:46:50;;;;;;;1.00;1.00;;;;;;;12.71;81.03;99700.84;4919441;29;20422;-85
2022/09/28 11:49:19;;;;;;;0.80;0.80;;;;;;;12.60;82.42;99698.72;4918794;29;20028;-85
2022/09/28 11:51:47;;;;;;;1.20;0.82;;;;;;;12.50;82.91;99693.88;4919667;29;20389;-84
2022/09/28 11:54:36;;;;;;;0.50;0.50;;;;;;;12.45;83.24;99695.84;4918005;29;20434;-85
2022/09/28 11:57:03;;;;;;;0.85;0.80;;;;;;;12.42;82.83;99689.91;4918991;29;20495;-85
2022/09/28 11:59:38;;;;;;;0.80;0.80;;;;;;;12.52;83.34;99686.03;4919109;29;20524;-85
2022/09/28 12:02:14;;;;;;;0.77;0.77;;;;;;;12.67;82.76;99674.13;4918391;29;20035;-85
2022/09/28 12:04:49;;;;;;;0.95;0.80;;;;;;;12.80;83.28;99675.28;4919395;29;20413;-85
2022/09/28 12:07:50;;;;;;;0.80;0.80;;;;;;;12.83;81.86;99682.94;4920493;29;20395;-85
2022/09/28 12:10:36;;;;;;;2.70;1.10;;;;;;;12.78;81.81;99676.25;4931558;29;20055;-85
2022/09/28 12:13:12;;;;;;;;;;;;;;;12.74;81.49;99672.94;4937689;29;20032;-86
2022/09/28 12:15:42;;;;;;;;;;;;;;;12.73;81.27;99678.22;4937588;29;19922;-86
2022/09/28 12:18:21;;;;;;;1.38;1.20;;;;;;;12.75;82.27;99674.63;4937646;29;19919;-86
2022/09/28 12:21:13;;;;;;;2.20;1.77;;;;;;;12.84;81.29;99676.00;4937940;29;20028;-85
2022/09/28 12:23:42;;;;;;;2.38;1.80;;;;;;;12.92;81.59;99675.66;4906947;29;20062;-85
2022/09/28 12:26:27;;;;;;;2.70;1.70;;;;;;;13.03;79.99;99677.78;4937330;29;20392;-85
2022/09/28 12:28:57;;;;;;;2.05;1.88;;;;;;;13.09;79.52;99677.53;4937401;29;20078;-85
2022/09/28 12:31:36;;;;;;;2.10;1.83;;;;;;;13.20;79.90;99685.69;4936662;29;20028;-85
2022/09/28 12:34:02;;;;;;;2.22;1.67;;;;;;;13.28;81.06;99683.59;4935605;29;20051;-86
2022/09/28 12:36:52;;;;;;;1.40;1.30;;;;;;;13.27;81.32;99689.72;4935126;29;20520;-88
2022/09/28 12:39:28;;;;;;;1.35;1.30;;;;;;;13.22;80.63;99696.03;4938056;29;20048;-88
2022/09/28 12:42:26;;;;;;;1.30;1.20;;;;;;;13.15;81.17;99690.25;4937807;29;20053;-86
2022/09/28 12:45:16;;;;;;;1.67;1.23;;;;;;;13.02;81.44;99692.56;4936942;29;20024;-88
2022/09/28 12:47:41;;;;;;;1.33;1.23;;;;;;;12.90;82.44;99686.13;4938405;29;20036;-89